sensor_id;sensor_type;location;lat;lon;timestamp;pressure;altitude;pressure_sealevel;temperature;humidity
6393;BME280;3229;42.674;23.282;2023-05-16T00:00:24;94335.31;;;16.85;71.31
6393;BME280;3229;42.674;23.282;2023-05-16T00:02:51;94324.28;;;16.76;71.25
6393;BME280;3229;42.674;23.282;2023-05-16T00:05:18;94331.66;;;16.79;71.28
6393;BME280;3229;42.674;23.282;2023-05-16T00:07:45;94324.66;;;16.73;71.50
6393;BME280;3229;42.674;23.282;2023-05-16T00:10:14;94327.31;;;16.80;71.47
6393;BME280;3229;42.674;23.282;2023-05-16T00:12:40;94332.84;;;16.77;71.48
6393;BME280;3229;42.674;23.282;2023-05-16T00:15:10;94323.50;;;16.76;71.49
6393;BME280;3229;42.674;23.282;2023-05-16T00:17:38;94320.28;;;16.74;71.58
6393;BME280;3229;42.674;23.282;2023-05-16T00:20:06;94323.88;;;16.73;71.54
6393;BME280;3229;42.674;23.282;2023-05-16T00:22:36;94326.16;;;16.68;71.58
6393;BME280;3229;42.674;23.282;2023-05-16T00:25:03;94320.63;;;16.71;71.81
6393;BME280;3229;42.674;23.282;2023-05-16T00:27:32;94320.81;;;16.69;71.72
6393;BME280;3229;42.674;23.282;2023-05-16T00:30:00;94320.22;;;16.67;71.70
6393;BME280;3229;42.674;23.282;2023-05-16T00:32:27;94321.16;;;16.66;71.95
6393;BME280;3229;42.674;23.282;2023-05-16T00:34:53;94307.84;;;16.63;72.18
6393;BME280;3229;42.674;23.282;2023-05-16T00:37:20;94308.66;;;16.63;72.09
6393;BME280;3229;42.674;23.282;2023-05-16T00:39:47;94291.50;;;16.55;71.89
6393;BME280;3229;42.674;23.282;2023-05-16T00:42:14;94305.28;;;16.63;72.00
6393;BME280;3229;42.674;23.282;2023-05-16T00:44:42;94271.50;;;16.43;72.06
6393;BME280;3229;42.674;23.282;2023-05-16T00:47:09;94299.47;;;16.61;72.17
6393;BME280;3229;42.674;23.282;2023-05-16T00:49:36;94263.84;;;16.49;72.31
6393;BME280;3229;42.674;23.282;2023-05-16T00:52:03;94279.03;;;16.59;72.16
6393;BME280;3229;42.674;23.282;2023-05-16T00:54:30;94239.50;;;16.37;72.27
6393;BME280;3229;42.674;23.282;2023-05-16T00:56:57;94270.66;;;16.57;72.35
6393;BME280;3229;42.674;23.282;2023-05-16T00:59:24;94277.00;;;16.54;72.23
6393;BME280;3229;42.674;23.282;2023-05-16T01:01:52;94277.16;;;16.53;72.44
6393;BME280;3229;42.674;23.282;2023-05-16T01:04:20;94274.41;;;16.54;72.45
6393;BME280;3229;42.674;23.282;2023-05-16T01:06:47;94277.94;;;16.53;72.41
6393;BME280;3229;42.674;23.282;2023-05-16T01:09:14;94277.16;;;16.53;72.62
6393;BME280;3229;42.674;23.282;2023-05-16T01:11:46;94281.53;;;16.52;72.67
6393;BME280;3229;42.674;23.282;2023-05-16T01:14:20;94271.59;;;16.49;72.63
6393;BME280;3229;42.674;23.282;2023-05-16T01:17:00;94280.13;;;16.50;72.63
6393;BME280;3229;42.674;23.282;2023-05-16T01:19:46;94273.75;;;16.46;72.80
6393;BME280;3229;42.674;23.282;2023-05-16T01:22:22;94272.75;;;16.47;72.77
6393;BME280;3229;42.674;23.282;2023-05-16T01:25:01;94246.38;;;16.30;72.90
6393;BME280;3229;42.674;23.282;2023-05-16T01:27:32;94267.94;;;16.44;72.80
6393;BME280;3229;42.674;23.282;2023-05-16T01:30:00;94259.41;;;16.43;73.02
6393;BME280;3229;42.674;23.282;2023-05-16T01:32:28;94259.59;;;16.42;72.97
6393;BME280;3229;42.674;23.282;2023-05-16T01:34:55;94256.03;;;16.43;72.97
6393;BME280;3229;42.674;23.282;2023-05-16T01:37:29;94249.28;;;16.42;72.83
6393;BME280;3229;42.674;23.282;2023-05-16T01:40:02;94244.28;;;16.40;73.01
6393;BME280;3229;42.674;23.282;2023-05-16T01:42:36;94241.88;;;16.39;72.68
6393;BME280;3229;42.674;23.282;2023-05-16T01:45:08;94238.72;;;16.37;73.18
6393;BME280;3229;42.674;23.282;2023-05-16T01:47:40;94244.47;;;16.39;73.11
6393;BME280;3229;42.674;23.282;2023-05-16T01:50:12;94239.31;;;16.39;73.23
6393;BME280;3229;42.674;23.282;2023-05-16T01:52:44;94236.13;;;16.37;73.30
6393;BME280;3229;42.674;23.282;2023-05-16T01:55:15;94238.72;;;16.37;73.30
6393;BME280;3229;42.674;23.282;2023-05-16T01:57:44;94204.97;;;16.17;73.22
6393;BME280;3229;42.674;23.282;2023-05-16T02:00:12;94235.50;;;16.35;73.35
6393;BME280;3229;42.674;23.282;2023-05-16T02:02:38;94228.75;;;16.34;73.27
6393;BME280;3229;42.674;23.282;2023-05-16T02:05:06;94219.56;;;16.31;73.46
6393;BME280;3229;42.674;23.282;2023-05-16T02:07:33;94210.38;;;16.22;73.44
6393;BME280;3229;42.674;23.282;2023-05-16T02:10:00;94205.72;;;16.11;73.34
6393;BME280;3229;42.674;23.282;2023-05-16T02:12:26;94230.88;;;16.30;73.42
6393;BME280;3229;42.674;23.282;2023-05-16T02:14:55;94223.78;;;16.32;73.42
6393;BME280;3229;42.674;23.282;2023-05-16T02:17:21;94204.16;;;16.16;73.46
6393;BME280;3229;42.674;23.282;2023-05-16T02:19:48;94225.94;;;16.28;73.32
6393;BME280;3229;42.674;23.282;2023-05-16T02:22:15;94192.44;;;16.14;73.42
6393;BME280;3229;42.674;23.282;2023-05-16T02:24:42;94221.56;;;16.29;73.55
6393;BME280;3229;42.674;23.282;2023-05-16T02:27:09;94211.16;;;16.22;73.35
6393;BME280;3229;42.674;23.282;2023-05-16T02:29:36;94225.13;;;16.28;73.71
6393;BME280;3229;42.674;23.282;2023-05-16T02:32:04;94225.13;;;16.28;73.70
6393;BME280;3229;42.674;23.282;2023-05-16T02:34:31;94224.31;;;16.27;73.66
6393;BME280;3229;42.674;23.282;2023-05-16T02:36:58;94233.84;;;16.27;73.67
6393;BME280;3229;42.674;23.282;2023-05-16T02:39:25;94235.63;;;16.26;73.68
6393;BME280;3229;42.674;23.282;2023-05-16T02:41:51;94234.81;;;16.26;73.70
6393;BME280;3229;42.674;23.282;2023-05-16T02:44:18;94229.66;;;16.26;73.81
6393;BME280;3229;42.674;23.282;2023-05-16T02:46:45;94225.50;;;16.25;73.77
6393;BME280;3229;42.674;23.282;2023-05-16T02:49:13;94222.91;;;16.25;73.84
6393;BME280;3229;42.674;23.282;2023-05-16T02:51:40;94220.31;;;16.25;73.79
6393;BME280;3229;42.674;23.282;2023-05-16T02:54:07;94185.44;;;16.08;73.94
6393;BME280;3229;42.674;23.282;2023-05-16T02:56:34;94212.94;;;16.22;74.01
6393;BME280;3229;42.674;23.282;2023-05-16T02:59:01;94214.72;;;16.21;73.37
6393;BME280;3229;42.674;23.282;2023-05-16T03:01:28;94208.22;;;16.25;73.88
6393;BME280;3229;42.674;23.282;2023-05-16T03:03:55;94173.81;;;15.97;73.71
6393;BME280;3229;42.674;23.282;2023-05-16T03:06:23;94217.75;;;16.25;74.06
6393;BME280;3229;42.674;23.282;2023-05-16T03:08:50;94203.41;;;16.22;74.05
6393;BME280;3229;42.674;23.282;2023-05-16T03:11:17;94192.88;;;16.17;74.03
6393;BME280;3229;42.674;23.282;2023-05-16T03:13:46;94205.00;;;16.23;73.96
6393;BME280;3229;42.674;23.282;2023-05-16T03:16:13;94207.44;;;16.25;74.04
6393;BME280;3229;42.674;23.282;2023-05-16T03:18:40;94211.00;;;16.24;74.00
6393;BME280;3229;42.674;23.282;2023-05-16T03:21:07;94215.16;;;16.25;74.18
6393;BME280;3229;42.674;23.282;2023-05-16T03:23:36;94212.41;;;16.26;74.09
6393;BME280;3229;42.674;23.282;2023-05-16T03:26:02;94215.78;;;16.27;74.09
6393;BME280;3229;42.674;23.282;2023-05-16T03:28:29;94205.63;;;16.25;74.15
6393;BME280;3229;42.674;23.282;2023-05-16T03:30:56;94211.41;;;16.27;74.12
6393;BME280;3229;42.674;23.282;2023-05-16T03:33:23;94208.81;;;16.27;74.17
6393;BME280;3229;42.674;23.282;2023-05-16T03:35:50;94208.03;;;16.27;74.08
6393;BME280;3229;42.674;23.282;2023-05-16T03:38:17;94213.81;;;16.29;74.13
6393;BME280;3229;42.674;23.282;2023-05-16T03:40:46;94204.28;;;16.29;74.10
6393;BME280;3229;42.674;23.282;2023-05-16T03:43:12;94207.66;;;16.30;74.13
6393;BME280;3229;42.674;23.282;2023-05-16T03:45:39;94201.28;;;16.26;74.02
6393;BME280;3229;42.674;23.282;2023-05-16T03:48:07;94168.38;;;16.07;74.15
6393;BME280;3229;42.674;23.282;2023-05-16T03:50:34;94207.47;;;16.31;74.20
6393;BME280;3229;42.674;23.282;2023-05-16T03:53:01;94193.53;;;16.26;74.25
6393;BME280;3229;42.674;23.282;2023-05-16T03:55:29;94202.16;;;16.33;74.25
6393;BME280;3229;42.674;23.282;2023-05-16T03:57:57;94211.47;;;16.34;74.08
6393;BME280;3229;42.674;23.282;2023-05-16T04:00:24;94208.09;;;16.34;74.40
6393;BME280;3229;42.674;23.282;2023-05-16T04:02:51;94210.50;;;16.35;74.29
6393;BME280;3229;42.674;23.282;2023-05-16T04:05:18;94207.75;;;16.37;74.38
6393;BME280;3229;42.674;23.282;2023-05-16T04:07:45;94204.53;;;16.35;74.12
6393;BME280;3229;42.674;23.282;2023-05-16T04:10:13;94211.13;;;16.37;74.28
6393;BME280;3229;42.674;23.282;2023-05-16T04:12:40;94210.13;;;16.38;74.26
6393;BME280;3229;42.674;23.282;2023-05-16T04:15:09;94219.47;;;16.39;74.26
6393;BME280;3229;42.674;23.282;2023-05-16T04:17:36;94218.66;;;16.39;74.52
6393;BME280;3229;42.674;23.282;2023-05-16T04:20:05;94221.06;;;16.40;74.21
6393;BME280;3229;42.674;23.282;2023-05-16T04:22:32;94211.56;;;16.41;74.41
6393;BME280;3229;42.674;23.282;2023-05-16T04:24:59;94214.94;;;16.41;74.35
6393;BME280;3229;42.674;23.282;2023-05-16T04:27:25;94209.38;;;16.44;74.43
6393;BME280;3229;42.674;23.282;2023-05-16T04:29:52;94207.00;;;16.43;74.17
6393;BME280;3229;42.674;23.282;2023-05-16T04:32:20;94209.22;;;16.46;74.40
6393;BME280;3229;42.674;23.282;2023-05-16T04:34:48;94207.22;;;16.48;74.25
6393;BME280;3229;42.674;23.282;2023-05-16T04:37:17;94200.13;;;16.50;74.06
6393;BME280;3229;42.674;23.282;2023-05-16T04:39:45;94200.47;;;16.47;74.16
6393;BME280;3229;42.674;23.282;2023-05-16T04:42:12;94203.09;;;16.53;74.25
6393;BME280;3229;42.674;23.282;2023-05-16T04:44:38;94202.94;;;16.55;74.04
6393;BME280;3229;42.674;23.282;2023-05-16T04:47:06;94205.16;;;16.58;74.10
6393;BME280;3229;42.674;23.282;2023-05-16T04:49:35;94199.78;;;16.60;74.19
6393;BME280;3229;42.674;23.282;2023-05-16T04:52:02;94202.16;;;16.61;74.41
6393;BME280;3229;42.674;23.282;2023-05-16T04:54:28;94205.59;;;16.90;88.75
6393;BME280;3229;42.674;23.282;2023-05-16T04:56:55;94192.69;;;17.24;91.32
6393;BME280;3229;42.674;23.282;2023-05-16T04:59:22;94194.25;;;17.53;90.64
6393;BME280;3229;42.674;23.282;2023-05-16T05:01:49;94182.81;;;17.76;89.05
6393;BME280;3229;42.674;23.282;2023-05-16T05:04:16;94188.63;;;17.98;87.56
6393;BME280;3229;42.674;23.282;2023-05-16T05:06:44;94176.31;;;18.07;86.27
6393;BME280;3229;42.674;23.282;2023-05-16T05:09:11;94195.06;;;18.28;85.50
6393;BME280;3229;42.674;23.282;2023-05-16T05:11:38;94202.84;;;18.42;85.10
6393;BME280;3229;42.674;23.282;2023-05-16T05:14:04;94190.31;;;18.45;84.15
6393;BME280;3229;42.674;23.282;2023-05-16T05:16:31;94197.88;;;18.67;83.59
6393;BME280;3229;42.674;23.282;2023-05-16T05:18:59;94205.28;;;18.76;83.21
6393;BME280;3229;42.674;23.282;2023-05-16T05:21:27;94190.72;;;18.89;83.38
6393;BME280;3229;42.674;23.282;2023-05-16T05:23:56;94197.88;;;19.07;82.97
6393;BME280;3229;42.674;23.282;2023-05-16T05:26:23;94195.47;;;19.18;82.31
6393;BME280;3229;42.674;23.282;2023-05-16T05:28:50;94197.03;;;19.33;81.48
6393;BME280;3229;42.674;23.282;2023-05-16T05:31:17;94178.88;;;19.39;80.93
6393;BME280;3229;42.674;23.282;2023-05-16T05:33:44;94168.69;;;19.38;80.24
6393;BME280;3229;42.674;23.282;2023-05-16T05:36:10;94181.69;;;19.31;79.59
6393;BME280;3229;42.674;23.282;2023-05-16T05:38:37;94174.34;;;19.21;79.19
6393;BME280;3229;42.674;23.282;2023-05-16T05:41:05;94171.34;;;19.11;78.82
6393;BME280;3229;42.674;23.282;2023-05-16T05:43:32;94158.03;;;19.01;78.53
6393;BME280;3229;42.674;23.282;2023-05-16T05:45:59;94160.44;;;18.96;78.17
6393;BME280;3229;42.674;23.282;2023-05-16T05:48:26;94155.03;;;18.91;77.89
6393;BME280;3229;42.674;23.282;2023-05-16T05:50:54;94156.88;;;18.84;77.67
6393;BME280;3229;42.674;23.282;2023-05-16T05:53:21;94157.47;;;18.79;77.29
6393;BME280;3229;42.674;23.282;2023-05-16T05:55:48;94149.69;;;18.72;77.14
6393;BME280;3229;42.674;23.282;2023-05-16T05:58:16;94156.66;;;18.72;76.78
6393;BME280;3229;42.674;23.282;2023-05-16T06:00:43;94163.22;;;18.68;76.65
6393;BME280;3229;42.674;23.282;2023-05-16T06:03:10;94087.34;;;18.21;76.58
6393;BME280;3229;42.674;23.282;2023-05-16T06:05:37;94158.63;;;18.63;76.39
6393;BME280;3229;42.674;23.282;2023-05-16T06:08:04;94171.19;;;18.60;76.06
6393;BME280;3229;42.674;23.282;2023-05-16T06:10:30;94153.44;;;18.43;75.90
6393;BME280;3229;42.674;23.282;2023-05-16T06:12:57;94167.41;;;18.55;75.62
6393;BME280;3229;42.674;23.282;2023-05-16T06:15:25;94176.16;;;18.54;75.67
6393;BME280;3229;42.674;23.282;2023-05-16T06:17:52;94168.59;;;18.53;75.33
6393;BME280;3229;42.674;23.282;2023-05-16T06:20:19;94152.06;;;18.41;75.16
6393;BME280;3229;42.674;23.282;2023-05-16T06:22:46;94171.38;;;18.51;74.92
6393;BME280;3229;42.674;23.282;2023-05-16T06:25:13;94171.59;;;18.50;74.91
6393;BME280;3229;42.674;23.282;2023-05-16T06:27:40;94157.22;;;18.47;74.81
6393;BME280;3229;42.674;23.282;2023-05-16T06:30:08;94164.81;;;18.49;74.52
6393;BME280;3229;42.674;23.282;2023-05-16T06:32:36;94163.03;;;18.49;74.33
6393;BME280;3229;42.674;23.282;2023-05-16T06:35:05;94147.28;;;18.51;74.27
6393;BME280;3229;42.674;23.282;2023-05-16T06:37:32;94146.28;;;18.52;74.03
6393;BME280;3229;42.674;23.282;2023-05-16T06:39:59;94132.16;;;18.54;73.96
6393;BME280;3229;42.674;23.282;2023-05-16T06:42:26;94124.59;;;18.53;73.81
6393;BME280;3229;42.674;23.282;2023-05-16T06:44:53;94128.16;;;18.52;73.63
6393;BME280;3229;42.674;23.282;2023-05-16T06:47:20;94122.78;;;18.53;73.46
6393;BME280;3229;42.674;23.282;2023-05-16T06:49:48;94106.03;;;18.56;73.45
6393;BME280;3229;42.674;23.282;2023-05-16T06:52:15;94100.06;;;18.55;73.21
6393;BME280;3229;42.674;23.282;2023-05-16T06:54:42;94100.69;;;18.58;73.08
6393;BME280;3229;42.674;23.282;2023-05-16T06:57:08;94090.31;;;18.58;72.95
6393;BME280;3229;42.674;23.282;2023-05-16T06:59:35;94095.06;;;18.61;72.79
6393;BME280;3229;42.674;23.282;2023-05-16T07:02:02;94076.97;;;18.54;72.33
6393;BME280;3229;42.674;23.282;2023-05-16T07:04:29;94092.28;;;18.69;72.36
6393;BME280;3229;42.674;23.282;2023-05-16T07:06:57;94088.53;;;18.71;72.14
6393;BME280;3229;42.674;23.282;2023-05-16T07:09:24;94078.56;;;18.75;71.92
6393;BME280;3229;42.674;23.282;2023-05-16T07:11:51;94078.13;;;18.78;71.87
6393;BME280;3229;42.674;23.282;2023-05-16T07:14:18;94074.75;;;18.84;71.63
6393;BME280;3229;42.674;23.282;2023-05-16T07:16:45;94049.25;;;18.68;71.39
6393;BME280;3229;42.674;23.282;2023-05-16T07:19:11;94087.28;;;18.94;71.14
6393;BME280;3229;42.674;23.282;2023-05-16T07:21:38;94068.53;;;18.98;70.95
6393;BME280;3229;42.674;23.282;2023-05-16T07:24:07;94061.34;;;19.00;70.85
6393;BME280;3229;42.674;23.282;2023-05-16T07:26:33;94055.34;;;19.07;70.60
6393;BME280;3229;42.674;23.282;2023-05-16T07:29:00;94073.88;;;19.10;70.56
6393;BME280;3229;42.674;23.282;2023-05-16T07:31:28;94080.25;;;19.14;70.39
6393;BME280;3229;42.674;23.282;2023-05-16T07:33:55;94090.78;;;19.19;70.09
6393;BME280;3229;42.674;23.282;2023-05-16T07:36:22;94095.34;;;19.24;69.93
6393;BME280;3229;42.674;23.282;2023-05-16T07:38:49;94107.50;;;19.30;70.02
6393;BME280;3229;42.674;23.282;2023-05-16T07:41:17;94128.41;;;19.35;69.65
6393;BME280;3229;42.674;23.282;2023-05-16T07:43:44;94124.41;;;19.39;69.64
6393;BME280;3229;42.674;23.282;2023-05-16T07:46:11;94134.97;;;19.44;69.52
6393;BME280;3229;42.674;23.282;2023-05-16T07:48:38;94116.97;;;19.49;69.45
6393;BME280;3229;42.674;23.282;2023-05-16T07:51:05;94121.34;;;19.55;69.41
6393;BME280;3229;42.674;23.282;2023-05-16T07:53:32;94100.19;;;19.59;69.14
6393;BME280;3229;42.674;23.282;2023-05-16T07:55:59;94105.94;;;19.67;69.14
6393;BME280;3229;42.674;23.282;2023-05-16T07:58:27;94095.56;;;19.67;68.89
6393;BME280;3229;42.674;23.282;2023-05-16T08:00:54;94098.53;;;19.77;68.77
6393;BME280;3229;42.674;23.282;2023-05-16T08:03:21;94093.69;;;19.81;68.48
6393;BME280;3229;42.674;23.282;2023-05-16T08:05:48;94089.25;;;19.88;68.29
6393;BME280;3229;42.674;23.282;2023-05-16T08:08:16;94086.03;;;19.93;68.20
6393;BME280;3229;42.674;23.282;2023-05-16T08:10:42;94073.22;;;19.98;67.99
6393;BME280;3229;42.674;23.282;2023-05-16T08:13:09;94073.97;;;20.05;67.87
6393;BME280;3229;42.674;23.282;2023-05-16T08:15:37;94061.75;;;20.12;67.65
6393;BME280;3229;42.674;23.282;2023-05-16T08:18:11;94051.53;;;20.17;67.44
6393;BME280;3229;42.674;23.282;2023-05-16T08:20:38;94052.03;;;20.26;67.32
6393;BME280;3229;42.674;23.282;2023-05-16T08:23:06;94051.97;;;20.33;67.25
6393;BME280;3229;42.674;23.282;2023-05-16T08:25:33;94046.50;;;20.41;66.90
6393;BME280;3229;42.674;23.282;2023-05-16T08:28:00;94047.28;;;20.48;66.77
6393;BME280;3229;42.674;23.282;2023-05-16T08:30:27;94041.81;;;20.56;66.65
6393;BME280;3229;42.674;23.282;2023-05-16T08:32:56;94045.50;;;20.67;66.52
6393;BME280;3229;42.674;23.282;2023-05-16T08:35:22;93973.09;;;20.34;66.36
6393;BME280;3229;42.674;23.282;2023-05-16T08:37:49;94041.72;;;20.81;65.91
6393;BME280;3229;42.674;23.282;2023-05-16T08:40:17;94048.69;;;20.87;65.78
6393;BME280;3229;42.674;23.282;2023-05-16T08:42:44;94048.16;;;20.97;65.34
6393;BME280;3229;42.674;23.282;2023-05-16T08:45:10;94039.06;;;21.06;65.21
6393;BME280;3229;42.674;23.282;2023-05-16T08:47:39;94035.97;;;21.16;64.79
6393;BME280;3229;42.674;23.282;2023-05-16T08:50:10;94023.78;;;21.28;64.35
6393;BME280;3229;42.674;23.282;2023-05-16T08:52:37;94041.19;;;21.46;64.10
6393;BME280;3229;42.674;23.282;2023-05-16T08:55:06;94047.16;;;21.65;63.90
6393;BME280;3229;42.674;23.282;2023-05-16T08:57:34;94057.84;;;21.87;63.64
6393;BME280;3229;42.674;23.282;2023-05-16T09:00:01;94069.13;;;22.11;62.84
6393;BME280;3229;42.674;23.282;2023-05-16T09:02:36;94072.91;;;22.38;62.53
6393;BME280;3229;42.674;23.282;2023-05-16T09:05:04;94049.44;;;22.38;62.19
6393;BME280;3229;42.674;23.282;2023-05-16T09:07:33;94045.59;;;22.52;61.86
6393;BME280;3229;42.674;23.282;2023-05-16T09:10:00;94082.31;;;22.86;61.82
6393;BME280;3229;42.674;23.282;2023-05-16T09:12:26;94074.25;;;22.99;61.57
6393;BME280;3229;42.674;23.282;2023-05-16T09:14:53;94076.84;;;23.11;61.53
6393;BME280;3229;42.674;23.282;2023-05-16T09:17:20;94083.84;;;23.22;61.13
6393;BME280;3229;42.674;23.282;2023-05-16T09:19:47;94087.91;;;23.30;61.14
6393;BME280;3229;42.674;23.282;2023-05-16T09:22:17;94083.38;;;23.37;60.95
6393;BME280;3229;42.674;23.282;2023-05-16T09:24:45;94087.09;;;23.41;61.05
6393;BME280;3229;42.674;23.282;2023-05-16T09:27:14;94095.81;;;23.47;60.70
6393;BME280;3229;42.674;23.282;2023-05-16T09:29:42;94089.47;;;23.43;60.76
6393;BME280;3229;42.674;23.282;2023-05-16T09:32:10;94095.13;;;23.51;60.31
6393;BME280;3229;42.674;23.282;2023-05-16T09:34:40;94087.03;;;23.53;60.60
6393;BME280;3229;42.674;23.282;2023-05-16T09:37:09;94053.72;;;23.43;60.36
6393;BME280;3229;42.674;23.282;2023-05-16T09:39:38;94068.78;;;23.53;60.41
6393;BME280;3229;42.674;23.282;2023-05-16T09:42:10;94072.50;;;23.57;60.35
6393;BME280;3229;42.674;23.282;2023-05-16T09:44:37;94055.88;;;23.46;60.03
6393;BME280;3229;42.674;23.282;2023-05-16T09:47:05;94078.63;;;23.63;60.22
6393;BME280;3229;42.674;23.282;2023-05-16T09:49:32;94073.97;;;23.65;59.91
6393;BME280;3229;42.674;23.282;2023-05-16T09:52:00;94070.34;;;23.66;59.58
6393;BME280;3229;42.674;23.282;2023-05-16T09:54:30;94068.06;;;23.69;59.58
6393;BME280;3229;42.674;23.282;2023-05-16T09:56:58;94075.75;;;23.76;59.61
6393;BME280;3229;42.674;23.282;2023-05-16T09:59:28;94081.06;;;23.81;59.78
6393;BME280;3229;42.674;23.282;2023-05-16T10:01:57;94057.69;;;23.74;59.23
6393;BME280;3229;42.674;23.282;2023-05-16T10:04:24;94076.00;;;23.91;59.33
6393;BME280;3229;42.674;23.282;2023-05-16T10:06:53;94062.41;;;23.89;58.94
6393;BME280;3229;42.674;23.282;2023-05-16T10:09:21;94041.66;;;23.83;59.07
6393;BME280;3229;42.674;23.282;2023-05-16T10:11:50;94073.22;;;24.10;58.78
6393;BME280;3229;42.674;23.282;2023-05-16T10:14:18;94075.66;;;24.16;58.92
6393;BME280;3229;42.674;23.282;2023-05-16T10:16:47;94074.41;;;24.19;58.59
6393;BME280;3229;42.674;23.282;2023-05-16T10:19:16;94084.34;;;24.22;58.50
6393;BME280;3229;42.674;23.282;2023-05-16T10:21:50;94091.66;;;24.20;58.45
6393;BME280;3229;42.674;23.282;2023-05-16T10:24:28;94087.47;;;24.19;58.56
6393;BME280;3229;42.674;23.282;2023-05-16T10:26:55;94077.94;;;24.13;58.40
6393;BME280;3229;42.674;23.282;2023-05-16T10:29:22;94081.84;;;24.10;58.62
6393;BME280;3229;42.674;23.282;2023-05-16T10:31:55;94075.50;;;24.06;58.26
6393;BME280;3229;42.674;23.282;2023-05-16T10:34:25;94072.81;;;24.01;58.37
6393;BME280;3229;42.674;23.282;2023-05-16T10:36:53;94063.06;;;23.96;58.42
6393;BME280;3229;42.674;23.282;2023-05-16T10:39:20;94062.16;;;23.91;58.51
6393;BME280;3229;42.674;23.282;2023-05-16T10:41:48;94042.44;;;23.83;58.57
6393;BME280;3229;42.674;23.282;2023-05-16T10:44:16;94039.66;;;23.73;58.82
6393;BME280;3229;42.674;23.282;2023-05-16T10:46:43;94038.41;;;23.75;58.92
6393;BME280;3229;42.674;23.282;2023-05-16T10:49:21;94032.28;;;23.70;58.46
6393;BME280;3229;42.674;23.282;2023-05-16T10:52:02;94033.94;;;23.88;58.21
6393;BME280;3229;42.674;23.282;2023-05-16T10:54:34;94023.31;;;23.94;58.41
6393;BME280;3229;42.674;23.282;2023-05-16T10:57:06;94017.63;;;23.97;57.79
6393;BME280;3229;42.674;23.282;2023-05-16T10:59:42;94025.69;;;23.96;57.98
6393;BME280;3229;42.674;23.282;2023-05-16T11:02:27;94035.00;;;23.92;58.01
6393;BME280;3229;42.674;23.282;2023-05-16T11:04:59;94034.06;;;23.81;58.38
6393;BME280;3229;42.674;23.282;2023-05-16T11:07:31;94053.28;;;23.75;58.49
6393;BME280;3229;42.674;23.282;2023-05-16T11:10:07;94065.94;;;23.66;58.56
6393;BME280;3229;42.674;23.282;2023-05-16T11:12:41;94069.09;;;23.57;58.78
6393;BME280;3229;42.674;23.282;2023-05-16T11:15:33;94077.00;;;23.45;58.80
6393;BME280;3229;42.674;23.282;2023-05-16T11:18:07;94057.31;;;23.25;58.96
6393;BME280;3229;42.674;23.282;2023-05-16T11:20:37;94085.88;;;23.32;58.94
6393;BME280;3229;42.674;23.282;2023-05-16T11:23:18;94086.00;;;23.25;59.05
6393;BME280;3229;42.674;23.282;2023-05-16T11:25:47;94087.72;;;23.20;59.31
6393;BME280;3229;42.674;23.282;2023-05-16T11:28:16;94079.22;;;23.13;59.05
6393;BME280;3229;42.674;23.282;2023-05-16T11:30:46;94073.66;;;23.09;59.48
6393;BME280;3229;42.674;23.282;2023-05-16T11:33:13;94070.72;;;23.06;59.58
6393;BME280;3229;42.674;23.282;2023-05-16T11:35:42;94056.44;;;22.96;59.22
6393;BME280;3229;42.674;23.282;2023-05-16T11:38:12;94055.22;;;22.99;59.60
6393;BME280;3229;42.674;23.282;2023-05-16T11:40:44;94053.28;;;22.94;59.41
6393;BME280;3229;42.674;23.282;2023-05-16T11:43:14;94062.00;;;23.00;59.53
6393;BME280;3229;42.674;23.282;2023-05-16T11:45:43;94067.81;;;23.02;59.42
6393;BME280;3229;42.674;23.282;2023-05-16T11:48:11;94071.19;;;23.02;59.51
6393;BME280;3229;42.674;23.282;2023-05-16T11:50:38;94057.59;;;23.00;59.35
6393;BME280;3229;42.674;23.282;2023-05-16T11:53:07;94069.13;;;23.04;59.17
6393;BME280;3229;42.674;23.282;2023-05-16T11:55:34;94062.91;;;23.06;59.29
6393;BME280;3229;42.674;23.282;2023-05-16T11:58:01;94069.38;;;23.15;59.08
6393;BME280;3229;42.674;23.282;2023-05-16T12:00:29;94065.59;;;23.22;59.01
6393;BME280;3229;42.674;23.282;2023-05-16T12:03:00;94050.69;;;23.35;59.09
6393;BME280;3229;42.674;23.282;2023-05-16T12:05:27;94044.19;;;23.49;58.72
6393;BME280;3229;42.674;23.282;2023-05-16T12:07:55;94034.00;;;23.64;58.38
6393;BME280;3229;42.674;23.282;2023-05-16T12:10:23;94023.63;;;23.81;58.18
6393;BME280;3229;42.674;23.282;2023-05-16T12:12:51;94025.22;;;23.99;58.11
6393;BME280;3229;42.674;23.282;2023-05-16T12:15:18;94033.84;;;24.16;57.82
6393;BME280;3229;42.674;23.282;2023-05-16T12:17:45;94029.41;;;24.34;57.63
6393;BME280;3229;42.674;23.282;2023-05-16T12:20:14;94035.75;;;24.55;57.19
6393;BME280;3229;42.674;23.282;2023-05-16T12:22:41;94031.03;;;24.73;56.96
6393;BME280;3229;42.674;23.282;2023-05-16T12:25:20;94026.53;;;24.91;57.11
6393;BME280;3229;42.674;23.282;2023-05-16T12:27:48;94023.06;;;25.07;56.45
6393;BME280;3229;42.674;23.282;2023-05-16T12:30:16;94016.19;;;25.18;56.64
6393;BME280;3229;42.674;23.282;2023-05-16T12:32:43;94011.47;;;25.20;56.23
6393;BME280;3229;42.674;23.282;2023-05-16T12:35:10;94007.03;;;25.20;56.31
6393;BME280;3229;42.674;23.282;2023-05-16T12:37:37;94027.53;;;25.28;56.55
6393;BME280;3229;42.674;23.282;2023-05-16T12:40:05;94017.72;;;25.14;56.36
6393;BME280;3229;42.674;23.282;2023-05-16T12:42:35;94008.38;;;25.01;56.94
6393;BME280;3229;42.674;23.282;2023-05-16T12:45:04;94035.56;;;25.00;56.81
6393;BME280;3229;42.674;23.282;2023-05-16T12:47:34;94008.06;;;24.75;57.23
6393;BME280;3229;42.674;23.282;2023-05-16T12:50:02;94032.38;;;24.76;57.29
6393;BME280;3229;42.674;23.282;2023-05-16T12:52:34;94035.88;;;24.65;57.78
6393;BME280;3229;42.674;23.282;2023-05-16T12:55:01;94038.34;;;24.55;57.90
6393;BME280;3229;42.674;23.282;2023-05-16T12:57:28;94036.88;;;24.42;58.14
6393;BME280;3229;42.674;23.282;2023-05-16T12:59:54;94045.34;;;24.32;58.33
6393;BME280;3229;42.674;23.282;2023-05-16T13:02:23;94048.47;;;24.17;58.43
6393;BME280;3229;42.674;23.282;2023-05-16T13:04:50;94053.56;;;24.07;58.46
6393;BME280;3229;42.674;23.282;2023-05-16T13:07:16;94056.22;;;23.95;58.75
6393;BME280;3229;42.674;23.282;2023-05-16T13:09:43;94057.91;;;23.85;59.21
6393;BME280;3229;42.674;23.282;2023-05-16T13:12:10;94049.31;;;23.72;59.12
6393;BME280;3229;42.674;23.282;2023-05-16T13:14:38;94055.34;;;23.61;59.42